• Join FlightAware (Why Join?)
  • Login
  • US Flag 
01:18PM EDT


 

Airport Tracker/Info


-or-


 

Live Flight TrackerFlight Track Log ✈ FDX1254 ✈ 24-Apr-2013 ✈ KFWA - KMEM

Flight Track Log - Related Links

Times and Time Zones

All times are in EDT time to prevent confusion due to time zone crossing. See the FDX1254 flight status page for this flight to view local times or setup timezone preferences in your user account.

Time Position Orientation Groundspeed Altitude Reporting Facility
EDT Latitude Longitude Course Direction KTS MPH feet Rate Location/Type
11:15PM 40.8240 -85.2630 217° Southwest 338 389 11,400  Level FlightAware
11:16PM 40.7650 -85.3280 220° Southwest 352 405 12,800 3,720 Climbing FlightAware
11:17PM 40.7040 -85.3960 220° Southwest 364 419 17,300 4,860 Climbing FlightAware
11:18PM 40.6510 -85.4550 220° Southwest 369 425 19,700 3,360 Climbing FlightAware
11:18PM 40.5910 -85.5210 220° Southwest 375 432 22,100 2,280 Climbing FlightAware
11:19PM 40.5370 -85.5800 220° Southwest 383 441 23,000 1,740 Climbing FlightAware
11:20PM 40.4810 -85.6430 221° Southwest 382 440 24,600 2,700 Climbing FlightAware
11:20PM 40.4250 -85.7040 220° Southwest 374 430 26,900 2,760 Climbing FlightAware
11:21PM 40.3710 -85.7630 220° Southwest 379 436 28,300 2,160 Climbing FlightAware
11:22PM 40.3080 -85.8330 220° Southwest 380 437 30,000 1,500 Climbing FlightAware
11:22PM 40.2590 -85.8850 219° Southwest 379 436 30,500 2,160 Climbing FlightAware
11:23PM 40.2040 -85.9460 220° Southwest 371 427 32,900 2,460 Climbing FlightAware
11:24PM 40.1430 -86.0120 220° Southwest 369 425 34,000 720 Climbing FlightAware
11:25PM 40.0880 -86.0720 220° Southwest 367 422 34,000  Level FlightAware
11:25PM 40.0300 -86.1340 219° Southwest 367 422 34,000  Level FlightAware
11:26PM 39.9790 -86.1910 221° Southwest 365 420 34,000  Level FlightAware
11:27PM 39.9270 -86.2460 219° Southwest 366 421 34,000  Level FlightAware
11:27PM 39.8680 -86.3100 220° Southwest 365 420 34,000  Level FlightAware
11:28PM 39.8150 -86.3650 219° Southwest 368 423 34,000  Level FlightAware
11:29PM 39.7480 -86.4180 211° Southwest 374 430 34,000  Level FlightAware
11:29PM 39.6890 -86.4630 210° Southwest 372 428 34,000  Level FlightAware
11:30PM 39.6320 -86.5060 210° Southwest 370 426 34,000  Level FlightAware
11:31PM 39.5660 -86.5550 210° Southwest 368 423 34,000  Level FlightAware
11:32PM 39.5020 -86.6040 211° Southwest 367 422 34,000  Level FlightAware
11:32PM 39.4470 -86.6460 211° Southwest 364 419 34,000  Level FlightAware
11:33PM 39.3790 -86.6960 210° Southwest 362 417 34,000  Level FlightAware
11:34PM 39.3220 -86.7400 211° Southwest 359 413 34,000  Level FlightAware
11:34PM 39.2560 -86.7890 210° Southwest 357 411 34,000  Level FlightAware
11:35PM 39.2020 -86.8300 210° Southwest 355 409 34,000  Level FlightAware
11:36PM 39.1440 -86.8720 209° Southwest 354 407 34,000  Level FlightAware
11:36PM 39.0790 -86.9210 210° Southwest 353 406 34,000  Level FlightAware
11:37PM 39.0230 -86.9630 210° Southwest 352 405 34,000  Level FlightAware
11:38PM 38.9610 -87.0090 210° Southwest 351 404 34,000  Level FlightAware
11:39PM 38.9040 -87.0510 210° Southwest 351 404 34,000  Level FlightAware
11:39PM 38.8480 -87.0920 210° Southwest 350 403 34,000  Level FlightAware
11:40PM 38.7830 -87.1400 210° Southwest 351 404 34,000  Level FlightAware
11:41PM 38.7270 -87.1820 210° Southwest 352 405 34,000  Level FlightAware
11:41PM 38.6620 -87.2300 210° Southwest 352 405 34,000  Level FlightAware
11:42PM 38.6070 -87.2700 210° Southwest 351 404 34,000  Level FlightAware
11:43PM 38.5420 -87.3170 209° Southwest 352 405 34,000  Level FlightAware
11:43PM 38.4860 -87.3580 210° Southwest 353 406 34,000  Level FlightAware
11:44PM 38.4220 -87.4050 210° Southwest 354 407 34,000  Level FlightAware
11:45PM 38.3660 -87.4460 210° Southwest 356 410 34,000  Level FlightAware
11:46PM 38.3080 -87.4880 210° Southwest 356 410 34,000  Level FlightAware
11:46PM 38.2450 -87.5340 210° Southwest 357 411 34,000  Level FlightAware
11:47PM 38.1840 -87.5780 210° Southwest 359 413 34,000  Level FlightAware
11:48PM 38.1290 -87.6180 210° Southwest 360 414 34,000  Level FlightAware
11:48PM 38.0610 -87.6660 209° Southwest 360 414 34,000  Level FlightAware
11:49PM 38.0040 -87.7080 210° Southwest 361 415 34,000  Level FlightAware
11:50PM 37.9400 -87.7550 210° Southwest 356 410 34,000  Level FlightAware
11:50PM 37.8930 -87.8120 224° Southwest 340 391 34,000  Level FlightAware
11:51PM 37.8510 -87.8730 229° Southwest 342 394 34,000  Level FlightAware
11:52PM 37.8050 -87.9410 229° Southwest 343 395 34,000  Level FlightAware
11:53PM 37.7630 -88.0010 228° Southwest 345 397 34,000  Level FlightAware
11:53PM 37.7170 -88.0680 229° Southwest 345 397 34,000  Level FlightAware
11:54PM 37.6740 -88.1290 228° Southwest 346 398 34,000  Level FlightAware
11:55PM 37.6250 -88.1990 229° Southwest 347 399 34,000  Level FlightAware
11:55PM 37.5820 -88.2620 229° Southwest 348 400 34,000  Level FlightAware
11:56PM 37.5410 -88.3200 228° Southwest 350 403 34,000  Level FlightAware
11:57PM 37.4950 -88.3870 229° Southwest 350 403 34,000  Level FlightAware
11:57PM 37.4490 -88.4530 229° Southwest 350 403 34,000  Level FlightAware
11:58PM 37.3970 -88.5150 223° Southwest 360 414 34,000  Level FlightAware
11:59PM 37.3440 -88.5640 216° Southwest 374 430 34,000  Level FlightAware
12:00AM 37.2850 -88.6110 212° Southwest 376 433 34,000  Level FlightAware
12:00AM 37.2200 -88.6620 212° Southwest 377 434 34,000  Level FlightAware
12:01AM 37.1650 -88.7050 212° Southwest 377 434 34,000  Level FlightAware
12:02AM 37.1140 -88.7440 211° Southwest 377 434 34,000  Level FlightAware
12:02AM 37.0640 -88.7840 213° Southwest 377 434 34,000  Level FlightAware
12:03AM 37.0010 -88.8330 212° Southwest 377 434 34,000  Level FlightAware
12:04AM 36.9080 -88.9070 212° Southwest 381 438 34,000  Level FlightAware
12:04AM 36.8420 -88.9580 212° Southwest 382 440 34,000  Level FlightAware
12:05AM 36.7720 -89.0130 212° Southwest 382 440 34,000  Level FlightAware
12:06AM 36.7080 -89.0630 212° Southwest 382 440 34,000  Level FlightAware
12:07AM 36.6570 -89.1030 212° Southwest 382 440 34,000  Level FlightAware
12:07AM 36.6060 -89.1430 212° Southwest 382 440 34,000  Level FlightAware
12:08AM 36.5550 -89.1820 212° Southwest 382 440 34,000  Level FlightAware
12:09AM 36.5040 -89.2220 212° Southwest 382 440 34,000  Level FlightAware
12:10AM 36.4410 -89.2710 212° Southwest 382 440 34,000  Level FlightAware
12:10AM 36.3900 -89.3110 212° Southwest 382 440 34,000  Level FlightAware
12:11AM 36.3390 -89.3500 212° Southwest 382 440 34,000  Level FlightAware
12:12AM 36.2880 -89.3900 212° Southwest 382 440 34,000  Level FlightAware
12:12AM 36.2370 -89.4290 212° Southwest 382 440 34,000  Level FlightAware
12:13AM 36.1730 -89.4790 212° Southwest 382 440 34,000  Level FlightAware
12:14AM 36.1220 -89.5180 212° Southwest 382 440 34,000  Level FlightAware
12:14AM 36.0710 -89.5580 212° Southwest 382 440 34,000 -14,580 Level FlightAware
12:15AM 35.8586 -89.7117 212° Southwest 376 433 12,700 -12,780 Descending Memphis Center
12:16AM 35.7861 -89.7658 211° Southwest 364 419 11,000 -1,320 Descending Memphis Center
12:17AM 35.7175 -89.8175 211° Southwest 330 380 10,100 -1,200 Descending Memphis Center
12:18AM 35.6361 -89.8383 192° South 282 325 8,600 -1,080 Descending Memphis Center
12:19AM 35.5592 -89.8442 184° South 276 318 8,000 -300 Descending Memphis Center
12:20AM 35.4817 -89.8217 167° South 282 325 8,100 -540 Climbing Memphis Center
12:21AM 35.4044 -89.8017 168° South 287 330 7,000 -900 Descending Memphis Center
12:22AM 35.3439 -89.7817 165° South 275 316 6,300 -840 Descending Memphis Center
12:23AM 35.2853 -89.7542 159° South 247 284 5,400 -960 Descending Memphis Center
12:24AM 35.2228 -89.7444 173° South 227 261 4,400 -780 Descending Memphis Center
12:25AM 35.1561 -89.7475 182° South 227 261 3,900 -720 Descending Memphis Center
12:26AM 35.0933 -89.7481 180° South 232 267 3,000 -420 Descending Memphis Center
12:27AM 35.0561 -89.7889 222° Southwest 189 217 3,100 -420 Climbing Memphis Center
12:28AM 35.0564 -89.8472 270° West 165 190 2,200 -960 Descending Memphis Center
12:29AM 35.0500 -89.9000 262° West 159 183 1,200 -960 Descending KMEM
12:32AM 35.0333 -89.9667 239° Southwest  Level FlightAware Approximate
12:39AM 35.0424 -89.9767 239° Southwest  Level Estimated